Terminal Aerodrome Forecast
Issued by NWS

Home | Current Version | Previous Version | Text Only | Print | Product List | Glossary On
Versions: 1 2 3 4 5 6 7 8 9 10 11 12 13 14 15 16 17
431
FTUS43 KOAX 231136
TAFSNY
TAF
KSNY 231136Z 2312/2412 15007KT P6SM SCT200
      TEMPO 2312/2314 5SM BR FEW009
     FM231700 20017G24KT P6SM SCT120
     FM240100 02016G23KT P6SM OVC040
     FM240600 36028G38KT 4SM -RASN OVC015=

USA.gov is the U.S. government's official web portal to all federal, state and local government web resources and services.